Time,TemperatureF,DewpointF,PressureIn,WindDirection,WindDirectionDegrees,WindSpeedMPH,WindSpeedGustMPH,Humidity,HourlyPrecipIn,Conditions,Clouds,dailyrainin,SoftwareType,DateUTC
2014-02-18 00:01:00,0.0,-4.7,30.32,SE,140,0.0,0.0,80,0.00,CLR,,0.00,WeatherDisplay:10.37,2014-02-18 05:01:00,
2014-02-18 00:02:00,0.0,-4.7,30.32,SE,140,0.0,0.0,80,0.00,CLR,,0.00,WeatherDisplay:10.37,2014-02-18 05:02:00,
2014-02-18 00:07:00,0.5,-4.0,30.31,SE,140,1.2,0.0,81,0.00,CLR,,0.00,WeatherDisplay:10.37,2014-02-18 05:07:00,
2014-02-18 00:12:00,0.6,-3.9,30.31,SE,140,0.0,0.0,81,0.00,CLR,,0.00,WeatherDisplay:10.37,2014-02-18 05:12:00,
2014-02-18 00:17:00,0.7,-4.0,30.30,SE,140,0.0,0.0,80,0.00,CLR,,0.00,WeatherDisplay:10.37,2014-02-18 05:17:00,
2014-02-18 00:22:00,1.0,-3.5,30.30,SE,140,0.0,0.1,81,0.00,CLR,,0.00,WeatherDisplay:10.37,2014-02-18 05:22:00,
2014-02-18 00:27:00,1.4,-3.3,30.30,SE,140,1.2,1.2,80,0.00,CLR,,0.00,WeatherDisplay:10.37,2014-02-18 05:27:00,
2014-02-18 00:32:00,1.6,-3.1,30.30,SE,140,2.0,2.0,80,0.00,CLR,,0.00,WeatherDisplay:10.37,2014-02-18 05:32:00,
2014-02-18 00:37:00,2.0,-2.8,30.30,SE,140,2.3,2.3,80,0.00,CLR,,0.00,WeatherDisplay:10.37,2014-02-18 05:37:00,
2014-02-18 00:42:00,2.7,-2.1,30.30,SE,140,0.0,0.0,80,0.00,CLR,,0.00,WeatherDisplay:10.37,2014-02-18 05:42:00,
2014-02-18 00:47:00,3.5,-1.3,30.29,SE,139,0.0,0.0,80,0.00,CLR,,0.00,WeatherDisplay:10.37,2014-02-18 05:47:00,
2014-02-18 00:52:00,4.1,-1.0,30.29,SE,138,2.3,2.3,79,0.00,CLR,,0.00,WeatherDisplay:10.37,2014-02-18 05:52:00,
2014-02-18 00:57:00,4.6,-0.8,30.29,SE,140,0.0,0.0,78,0.00,CLR,,0.00,WeatherDisplay:10.37,2014-02-18 05:57:00,
2014-02-18 01:02:00,5.0,-0.4,30.28,SE,140,1.2,0.0,78,0.00,CLR,,0.00,WeatherDisplay:10.37,2014-02-18 06:02:00,
2014-02-18 01:07:00,5.7,0.0,30.28,SE,139,0.0,0.0,77,0.00,CLR,,0.00,WeatherDisplay:10.37,2014-02-18 06:07:00,
2014-02-18 01:12:00,6.1,0.2,30.28,SE,128,2.3,2.3,76,0.00,CLR,,0.00,WeatherDisplay:10.37,2014-02-18 06:12:00,
2014-02-18 01:17:00,6.8,0.6,30.28,SE,128,0.0,0.0,75,0.00,CLR,,0.00,WeatherDisplay:10.37,2014-02-18 06:17:00,
2014-02-18 01:22:00,8.0,1.4,30.28,East,84,1.2,1.2,74,0.00,CLR,,0.00,WeatherDisplay:10.37,2014-02-18 06:22:00,
2014-02-18 01:27:00,9.9,2.1,30.27,SSW,194,1.2,0.0,70,0.00,CLR,,0.00,WeatherDisplay:10.37,2014-02-18 06:27:00,
2014-02-18 01:32:00,12.0,2.5,30.27,East,98,1.2,1.2,65,0.00,CLR,,0.00,WeatherDisplay:10.37,2014-02-18 06:32:00,
2014-02-18 01:37:00,14.3,1.8,30.26,East,97,5.8,5.8,57,0.00,CLR,,0.00,WeatherDisplay:10.37,2014-02-18 06:37:00,
2014-02-18 01:42:00,15.6,1.5,30.26,South,185,4.0,4.0,53,0.00,CLR,,0.00,WeatherDisplay:10.37,2014-02-18 06:42:00,
2014-02-18 01:47:00,16.3,1.3,30.26,SE,129,3.5,3.5,51,0.00,CLR,,0.00,WeatherDisplay:10.37,2014-02-18 06:47:00,
2014-02-18 01:52:00,16.7,0.8,30.26,SE,130,0.0,0.0,49,0.00,CLR,,0.00,WeatherDisplay:10.37,2014-02-18 06:52:00,
2014-02-18 01:57:00,16.9,-0.3,30.25,East,99,4.6,4.6,46,0.00,CLR,,0.00,WeatherDisplay:10.37,2014-02-18 06:57:00,
2014-02-18 02:02:00,16.9,0.1,30.25,SE,144,10.4,10.4,47,0.00,CLR,,0.00,WeatherDisplay:10.37,2014-02-18 07:02:00,
2014-02-18 02:07:00,16.9,-0.8,30.24,South,178,4.6,4.6,45,0.00,CLR,,0.00,WeatherDisplay:10.37,2014-02-18 07:07:00,
2014-02-18 02:12:00,17.2,-1.0,30.22,ESE,121,5.8,5.8,44,0.00,CLR,,0.00,WeatherDisplay:10.37,2014-02-18 07:12:00,
2014-02-18 02:15:00,26.9,22.4,30.00,SE,139,0.0,3.0,83,0.00,CLR,,0.00,WeatherDisplay:10.37,2014-02-18 07:15:00,
2014-02-18 02:17:00,17.8,-1.0,30.22,SW,233,2.3,2.3,43,0.00,CLR,,0.00,WeatherDisplay:10.37,2014-02-18 07:17:00,
2014-02-18 02:22:00,18.0,-0.3,30.22,SSW,195,4.6,4.6,44,0.00,CLR,,0.00,WeatherDisplay:10.37,2014-02-18 07:22:00,
2014-02-18 02:27:00,18.1,-1.2,30.21,SW,221,5.8,5.8,42,0.00,CLR,,0.00,WeatherDisplay:10.37,2014-02-18 07:27:00,
2014-02-18 02:32:00,18.2,-1.6,30.20,ESE,105,8.1,8.1,41,0.00,CLR,,0.00,WeatherDisplay:10.37,2014-02-18 07:32:00,
2014-02-18 02:37:00,18.5,-1.3,30.19,SSE,163,11.5,11.5,41,0.00,CLR,,0.00,WeatherDisplay:10.37,2014-02-18 07:37:00,
2014-02-18 02:42:00,18.7,-1.7,30.18,SSE,149,9.2,9.2,40,0.00,CLR,,0.00,WeatherDisplay:10.37,2014-02-18 07:42:00,
2014-02-18 02:47:00,18.8,-0.5,30.20,SSW,207,6.0,6.0,42,0.00,CLR,,0.00,WeatherDisplay:10.37,2014-02-18 07:47:00,
2014-02-18 02:52:00,18.9,-1.0,30.18,South,182,5.8,5.8,41,0.00,CLR,,0.00,WeatherDisplay:10.37,2014-02-18 07:52:00,
2014-02-18 02:57:00,19.0,-1.4,30.18,ESE,113,3.5,3.5,40,0.00,CLR,,0.00,WeatherDisplay:10.37,2014-02-18 07:57:00,
2014-02-18 03:02:00,19.1,-1.3,30.18,SE,145,4.6,4.6,40,0.00,CLR,,0.00,WeatherDisplay:10.37,2014-02-18 08:02:00,
2014-02-18 03:07:00,19.1,-0.8,30.18,WSW,249,5.8,5.8,41,0.00,CLR,,0.00,WeatherDisplay:10.37,2014-02-18 08:07:00,
2014-02-18 03:12:00,19.2,0.3,30.19,SSW,202,4.6,4.6,43,0.00,CLR,,0.00,WeatherDisplay:10.37,2014-02-18 08:12:00,
2014-02-18 03:17:00,19.3,-0.1,30.20,SE,136,3.5,3.5,42,0.00,CLR,,0.00,WeatherDisplay:10.37,2014-02-18 08:17:00,
2014-02-18 03:22:00,19.4,-0.5,30.20,SSW,206,3.5,3.5,41,0.00,CLR,,0.00,WeatherDisplay:10.37,2014-02-18 08:22:00,
2014-02-18 03:27:00,19.4,0.0,30.20,WSW,246,1.2,0.0,42,0.00,CLR,,0.00,WeatherDisplay:10.37,2014-02-18 08:27:00,
2014-02-18 03:31:00,19.4,0.0,30.21,WSW,246,0.0,0.0,42,0.00,CLR,,0.00,WeatherDisplay:10.37,2014-02-18 08:31:00,
2014-02-18 03:36:00,19.3,0.9,30.20,East,94,3.5,3.5,44,0.00,CLR,,0.00,WeatherDisplay:10.37,2014-02-18 08:36:00,
2014-02-18 03:41:00,19.2,1.3,30.19,SE,126,0.0,0.0,45,0.00,CLR,,0.00,WeatherDisplay:10.37,2014-02-18 08:41:00,
2014-02-18 03:46:00,19.1,0.2,30.19,ESE,112,2.3,2.3,43,0.00,CLR,,0.00,WeatherDisplay:10.37,2014-02-18 08:46:00,
2014-02-18 03:51:00,19.1,1.7,30.19,SW,233,2.3,2.3,46,0.00,CLR,,0.00,WeatherDisplay:10.37,2014-02-18 08:51:00,
2014-02-18 03:56:00,19.5,3.0,30.19,SW,227,1.2,1.2,48,0.00,CLR,,0.00,WeatherDisplay:10.37,2014-02-18 08:56:00,
2014-02-18 04:01:00,19.7,3.2,30.20,SSW,205,3.5,3.5,48,0.00,CLR,,0.00,WeatherDisplay:10.37,2014-02-18 09:01:00,
2014-02-18 04:06:00,19.7,4.5,30.21,South,187,0.0,0.0,51,0.00,CLR,,0.00,WeatherDisplay:10.37,2014-02-18 09:06:00,
2014-02-18 04:11:00,19.8,5.4,30.20,SE,142,3.5,3.5,53,0.00,CLR,,0.00,WeatherDisplay:10.37,2014-02-18 09:11:00,
2014-02-18 04:16:00,19.7,8.0,30.20,West,267,10.4,10.4,60,0.00,CLR,,0.00,WeatherDisplay:10.37,2014-02-18 09:16:00,
2014-02-18 04:21:00,19.0,10.8,30.20,SSE,167,3.5,3.5,70,0.00,CLR,,0.00,WeatherDisplay:10.37,2014-02-18 09:21:00,
2014-02-18 04:26:00,18.4,11.5,30.20,SSW,207,4.0,4.0,74,0.00,CLR,,0.00,WeatherDisplay:10.37,2014-02-18 09:26:00,
2014-02-18 04:31:00,17.6,11.9,30.19,SSE,153,9.2,9.2,78,0.00,CLR,,0.00,WeatherDisplay:10.37,2014-02-18 09:31:00,
2014-02-18 04:36:00,17.1,12.0,30.19,ESE,111,5.8,5.8,80,0.00,CLR,,0.00,WeatherDisplay:10.37,2014-02-18 09:36:00,
2014-02-18 04:41:00,16.6,12.1,30.19,ESE,105,2.3,2.3,82,0.00,CLR,,0.00,WeatherDisplay:10.37,2014-02-18 09:41:00,
2014-02-18 04:46:00,16.3,12.3,30.18,ENE,69,3.5,3.5,84,0.00,CLR,,0.00,WeatherDisplay:10.37,2014-02-18 09:46:00,
2014-02-18 04:51:00,16.3,12.3,30.17,ESE,108,2.3,2.3,84,0.00,CLR,,0.00,WeatherDisplay:10.37,2014-02-18 09:51:00,
2014-02-18 04:56:00,16.2,12.5,30.17,ESE,121,11.5,11.5,85,0.00,CLR,,0.00,WeatherDisplay:10.37,2014-02-18 09:56:00,
2014-02-18 05:01:00,16.1,12.4,30.15,ESE,121,4.6,4.6,85,0.00,CLR,,0.00,WeatherDisplay:10.37,2014-02-18 10:01:00,
2014-02-18 05:06:00,16.0,12.3,30.15,SE,141,8.1,8.1,85,0.00,CLR,,0.00,WeatherDisplay:10.37,2014-02-18 10:06:00,
2014-02-18 05:11:00,15.9,12.2,30.15,ENE,76,3.5,3.5,85,0.00,CLR,,0.00,WeatherDisplay:10.37,2014-02-18 10:11:00,
2014-02-18 05:16:00,15.9,11.9,30.15,ESE,115,3.5,3.5,84,0.00,CLR,,0.00,WeatherDisplay:10.37,2014-02-18 10:16:00,
2014-02-18 05:21:00,16.0,12.0,30.14,SSE,165,2.3,2.3,84,0.00,CLR,,0.00,WeatherDisplay:10.37,2014-02-18 10:21:00,
2014-02-18 05:26:00,16.1,11.8,30.15,South,179,4.6,4.6,83,0.00,CLR,,0.00,WeatherDisplay:10.37,2014-02-18 10:26:00,
2014-02-18 05:31:00,16.3,12.0,30.15,SSW,196,5.8,5.8,83,0.00,CLR,,0.00,WeatherDisplay:10.37,2014-02-18 10:31:00,
2014-02-18 05:36:00,16.5,12.0,30.15,ENE,75,2.3,2.3,82,0.00,CLR,,0.00,WeatherDisplay:10.37,2014-02-18 10:36:00,
2014-02-18 05:41:00,16.8,12.0,30.14,SSE,164,2.3,2.3,81,0.00,CLR,,0.00,WeatherDisplay:10.37,2014-02-18 10:41:00,
2014-02-18 05:46:00,17.1,11.7,30.14,SE,137,5.8,5.8,79,0.00,CLR,,0.00,WeatherDisplay:10.37,2014-02-18 10:46:00,
2014-02-18 05:51:00,17.5,11.5,30.14,SSW,207,1.2,1.2,77,0.00,CLR,,0.00,WeatherDisplay:10.37,2014-02-18 10:51:00,
2014-02-18 05:56:00,17.6,11.6,30.15,ESE,102,6.9,6.9,77,0.00,CLR,,0.00,WeatherDisplay:10.37,2014-02-18 10:56:00,
2014-02-18 06:01:00,17.5,11.8,30.15,SE,136,2.3,2.3,78,0.00,CLR,,0.00,WeatherDisplay:10.37,2014-02-18 11:01:00,
2014-02-18 06:06:00,17.3,12.2,30.14,East,82,3.5,3.5,80,0.00,CLR,,0.00,WeatherDisplay:10.37,2014-02-18 11:06:00,
2014-02-18 06:11:00,17.0,12.2,30.14,East,90,0.0,0.0,81,0.00,CLR,,0.00,WeatherDisplay:10.37,2014-02-18 11:11:00,
2014-02-18 06:16:00,16.9,12.1,30.13,ESE,121,10.4,0.0,81,0.00,CLR,,0.00,WeatherDisplay:10.37,2014-02-18 11:16:00,
2014-02-18 06:21:00,16.7,12.2,30.13,East,92,4.6,4.6,82,0.00,CLR,,0.00,WeatherDisplay:10.37,2014-02-18 11:21:00,
2014-02-18 06:26:00,16.7,11.9,30.13,East,96,4.6,4.6,81,0.00,CLR,,0.00,WeatherDisplay:10.37,2014-02-18 11:26:00,
2014-02-18 06:31:00,16.8,11.4,30.13,ESE,103,1.2,0.0,79,0.00,CLR,,0.00,WeatherDisplay:10.37,2014-02-18 11:31:00,
2014-02-18 06:36:00,16.8,11.4,30.13,East,100,1.2,0.0,79,0.00,CLR,,0.00,WeatherDisplay:10.37,2014-02-18 11:36:00,
2014-02-18 06:41:00,16.7,11.3,30.12,East,90,1.2,0.0,79,0.00,CLR,,0.00,WeatherDisplay:10.37,2014-02-18 11:41:00,
2014-02-18 06:46:00,16.7,11.3,30.12,East,91,2.3,2.3,79,0.00,CLR,,0.00,WeatherDisplay:10.37,2014-02-18 11:46:00,
2014-02-18 06:51:00,16.6,11.2,30.12,South,186,5.8,5.8,79,0.00,CLR,,0.00,WeatherDisplay:10.37,2014-02-18 11:51:00,
2014-02-18 06:56:00,16.7,11.0,30.12,SSE,156,0.0,0.0,78,0.00,CLR,,0.00,WeatherDisplay:10.37,2014-02-18 11:56:00,
2014-02-18 07:01:00,16.7,10.7,30.12,ESE,112,3.5,3.5,77,0.00,CLR,,0.00,WeatherDisplay:10.37,2014-02-18 12:01:00,
2014-02-18 07:06:00,16.5,10.8,30.12,ESE,117,3.5,3.5,78,0.00,CLR,,0.00,WeatherDisplay:10.37,2014-02-18 12:06:00,
2014-02-18 07:11:00,16.3,10.6,30.12,SE,133,3.5,3.5,78,0.00,CLR,,0.00,WeatherDisplay:10.37,2014-02-18 12:11:00,
2014-02-18 07:16:00,16.0,10.6,30.12,East,94,3.5,3.5,79,0.00,CLR,,0.00,WeatherDisplay:10.37,2014-02-18 12:16:00,
2014-02-18 07:21:00,15.8,10.7,30.11,East,90,5.8,5.8,80,0.00,CLR,,0.00,WeatherDisplay:10.37,2014-02-18 12:21:00,
2014-02-18 07:26:00,15.5,10.7,30.11,NE,53,3.5,3.5,81,0.00,CLR,,0.00,WeatherDisplay:10.37,2014-02-18 12:26:00,
2014-02-18 07:31:00,15.4,10.9,30.11,SSE,159,5.0,5.0,82,0.00,CLR,,0.00,WeatherDisplay:10.37,2014-02-18 12:31:00,
2014-02-18 07:36:00,15.3,10.8,30.10,ESE,112,3.5,3.5,82,0.00,CLR,,0.00,WeatherDisplay:10.37,2014-02-18 12:36:00,
2014-02-18 07:41:00,15.3,10.8,30.10,East,89,3.5,3.5,82,0.00,CLR,,0.00,WeatherDisplay:10.37,2014-02-18 12:41:00,
2014-02-18 07:46:00,15.2,11.0,30.11,East,90,2.3,2.3,83,0.00,CLR,,0.00,WeatherDisplay:10.37,2014-02-18 12:46:00,
2014-02-18 07:51:00,15.2,10.7,30.10,SSE,148,5.8,5.8,82,0.00,CLR,,0.00,WeatherDisplay:10.37,2014-02-18 12:51:00,
2014-02-18 07:56:00,15.3,10.8,30.11,ESE,110,2.3,2.3,82,0.00,CLR,,0.00,WeatherDisplay:10.37,2014-02-18 12:56:00,
2014-02-18 08:01:00,15.4,10.9,30.11,ENE,75,3.5,3.5,82,0.00,CLR,,0.00,WeatherDisplay:10.37,2014-02-18 13:01:00,
2014-02-18 08:06:00,15.6,10.8,30.11,SE,129,2.3,2.3,81,0.00,CLR,,0.00,WeatherDisplay:10.37,2014-02-18 13:06:00,
2014-02-18 08:11:00,15.8,11.0,30.11,SE,128,1.2,1.2,81,0.00,CLR,,0.00,WeatherDisplay:10.37,2014-02-18 13:11:00,
2014-02-18 08:16:00,16.0,11.2,30.09,East,92,3.5,3.5,81,0.00,CLR,,0.00,WeatherDisplay:10.37,2014-02-18 13:16:00,
2014-02-18 08:21:00,16.2,11.4,30.09,ESE,102,3.5,3.5,81,0.00,CLR,,0.00,WeatherDisplay:10.37,2014-02-18 13:21:00,
2014-02-18 08:26:00,16.3,11.8,30.09,East,92,3.5,3.5,82,0.00,CLR,,0.00,WeatherDisplay:10.37,2014-02-18 13:26:00,
2014-02-18 08:31:00,16.6,11.8,30.09,East,94,3.5,3.5,81,0.00,CLR,,0.00,WeatherDisplay:10.37,2014-02-18 13:31:00,
2014-02-18 08:36:00,16.8,12.0,30.09,East,88,2.3,2.3,81,0.00,CLR,,0.00,WeatherDisplay:10.37,2014-02-18 13:36:00,
2014-02-18 08:41:00,17.0,11.9,30.09,SE,141,1.2,1.2,80,0.00,CLR,,0.00,WeatherDisplay:10.37,2014-02-18 13:41:00,
2014-02-18 08:46:00,17.4,12.6,30.08,North,360,2.3,2.3,81,0.00,CLR,,0.00,WeatherDisplay:10.37,2014-02-18 13:46:00,
2014-02-18 08:51:00,17.9,12.5,30.08,SSE,150,5.8,5.8,79,0.00,CLR,,0.00,WeatherDisplay:10.37,2014-02-18 13:51:00,
2014-02-18 08:56:00,18.0,12.6,30.08,SSE,150,1.2,1.2,79,0.00,CLR,,0.00,WeatherDisplay:10.37,2014-02-18 13:56:00,
2014-02-18 09:01:00,18.2,12.5,30.08,SE,129,5.8,5.8,78,0.00,CLR,,0.00,WeatherDisplay:10.37,2014-02-18 14:01:00,
2014-02-18 09:06:00,18.4,12.7,30.07,ESE,114,2.3,2.3,78,0.00,CLR,,0.00,WeatherDisplay:10.37,2014-02-18 14:06:00,
2014-02-18 09:11:00,18.7,13.0,30.07,North,360,3.5,3.5,78,0.00,CLR,,0.00,WeatherDisplay:10.37,2014-02-18 14:11:00,
2014-02-18 09:16:00,19.2,13.2,30.07,North,360,5.8,5.8,77,0.00,CLR,,0.00,WeatherDisplay:10.37,2014-02-18 14:16:00,
2014-02-18 09:21:00,19.5,13.2,30.07,SE,140,5.8,5.8,76,0.00,CLR,,0.00,WeatherDisplay:10.37,2014-02-18 14:21:00,
2014-02-18 09:26:00,19.7,13.7,30.06,North,360,5.0,5.0,77,0.00,CLR,,0.00,WeatherDisplay:10.37,2014-02-18 14:26:00,
2014-02-18 09:31:00,19.9,13.9,30.06,North,360,3.5,3.5,77,0.00,CLR,,0.00,WeatherDisplay:10.37,2014-02-18 14:31:00,
2014-02-18 09:36:00,20.0,13.9,30.06,North,360,2.3,2.3,77,0.00,CLR,,0.00,WeatherDisplay:10.37,2014-02-18 14:36:00,
2014-02-18 09:41:00,20.2,14.4,30.06,North,360,1.2,1.2,78,0.00,CLR,,0.00,WeatherDisplay:10.37,2014-02-18 14:41:00,
2014-02-18 09:46:00,20.4,14.9,30.05,North,360,5.8,5.8,79,0.00,CLR,,0.00,WeatherDisplay:10.37,2014-02-18 14:46:00,
2014-02-18 09:51:00,20.3,14.8,30.05,North,360,5.8,5.8,79,0.00,CLR,,0.00,WeatherDisplay:10.37,2014-02-18 14:51:00,
2014-02-18 09:56:00,20.4,15.2,30.05,North,360,4.0,4.0,80,0.00,CLR,,0.00,WeatherDisplay:10.37,2014-02-18 14:56:00,
2014-02-18 10:01:00,20.8,15.6,30.05,North,360,3.0,3.0,80,0.00,CLR,,0.00,WeatherDisplay:10.37,2014-02-18 15:01:00,
2014-02-18 10:06:00,21.2,16.0,30.05,North,360,2.3,2.3,80,0.00,CLR,,0.00,WeatherDisplay:10.37,2014-02-18 15:06:00,
2014-02-18 10:11:00,21.6,16.1,30.05,North,360,2.3,2.3,79,0.00,CLR,,0.00,WeatherDisplay:10.37,2014-02-18 15:11:00,
2014-02-18 10:16:00,21.7,16.2,30.05,North,360,4.6,4.6,79,0.00,CLR,,0.00,WeatherDisplay:10.37,2014-02-18 15:16:00,
2014-02-18 10:21:00,21.5,15.7,30.04,ESE,120,3.5,3.5,78,0.00,CLR,,0.00,WeatherDisplay:10.37,2014-02-18 15:21:00,
2014-02-18 10:26:00,21.3,15.8,30.04,SSE,150,4.6,4.6,79,0.00,CLR,,0.00,WeatherDisplay:10.37,2014-02-18 15:26:00,
2014-02-18 10:31:00,21.3,16.1,30.04,ESE,113,6.9,6.9,80,0.00,CLR,,0.00,WeatherDisplay:10.37,2014-02-18 15:31:00,
2014-02-18 10:36:00,21.3,16.1,30.04,SSW,202,2.3,2.3,80,0.00,CLR,,0.00,WeatherDisplay:10.37,2014-02-18 15:36:00,
2014-02-18 10:41:00,21.1,16.2,30.04,ESE,119,1.2,1.2,81,0.00,CLR,,0.00,WeatherDisplay:10.37,2014-02-18 15:41:00,
2014-02-18 10:46:00,21.1,16.2,30.04,SSW,200,4.6,4.6,81,0.00,CLR,,0.00,WeatherDisplay:10.37,2014-02-18 15:46:00,
2014-02-18 10:51:00,21.0,16.1,30.03,SSE,157,3.5,3.5,81,0.00,CLR,,0.00,WeatherDisplay:10.37,2014-02-18 15:51:00,
2014-02-18 10:56:00,21.0,16.4,30.03,SSE,153,9.2,9.2,82,0.00,CLR,,0.00,WeatherDisplay:10.37,2014-02-18 15:56:00,
2014-02-18 11:01:00,21.1,16.5,30.03,ESE,109,4.6,4.6,82,0.00,CLR,,0.00,WeatherDisplay:10.37,2014-02-18 16:01:00,
2014-02-18 11:06:00,21.4,17.0,30.02,ENE,69,2.3,2.3,83,0.00,CLR,,0.00,WeatherDisplay:10.37,2014-02-18 16:06:00,
2014-02-18 11:11:00,21.5,16.9,30.02,South,184,3.5,3.5,82,0.00,CLR,,0.00,WeatherDisplay:10.37,2014-02-18 16:11:00,
2014-02-18 11:16:00,21.6,17.0,30.02,South,171,9.2,9.2,82,0.00,CLR,,0.00,WeatherDisplay:10.37,2014-02-18 16:16:00,
2014-02-18 11:21:00,21.6,17.0,30.01,SSE,162,4.0,4.0,82,0.00,CLR,,0.00,WeatherDisplay:10.37,2014-02-18 16:21:00,
2014-02-18 11:26:00,21.9,17.2,30.01,SSE,150,9.2,9.2,82,0.00,CLR,,0.00,WeatherDisplay:10.37,2014-02-18 16:26:00,
2014-02-18 11:31:00,22.0,17.3,30.01,SE,128,3.5,3.5,82,0.00,CLR,,0.00,WeatherDisplay:10.37,2014-02-18 16:31:00,
2014-02-18 11:36:00,22.2,17.5,30.01,SE,127,4.6,4.6,82,0.00,CLR,,0.00,WeatherDisplay:10.37,2014-02-18 16:36:00,
2014-02-18 11:41:00,22.4,18.0,30.02,SSW,192,5.0,5.0,83,0.00,CLR,,0.00,WeatherDisplay:10.37,2014-02-18 16:41:00,
2014-02-18 11:46:00,22.6,18.2,30.01,ESE,112,2.3,2.3,83,0.00,CLR,,0.00,WeatherDisplay:10.37,2014-02-18 16:46:00,
2014-02-18 11:51:00,22.8,18.4,30.01,South,182,3.5,3.5,83,0.00,CLR,,0.00,WeatherDisplay:10.37,2014-02-18 16:51:00,
2014-02-18 11:56:00,23.0,18.6,30.01,ESE,114,1.2,1.2,83,0.00,CLR,,0.00,WeatherDisplay:10.37,2014-02-18 16:56:00,
2014-02-18 12:01:00,23.3,19.2,30.01,North,360,2.3,2.3,84,0.00,CLR,,0.00,WeatherDisplay:10.37,2014-02-18 17:01:00,
2014-02-18 12:06:00,23.8,19.7,30.00,SSE,152,1.2,1.2,84,0.00,CLR,,0.00,WeatherDisplay:10.37,2014-02-18 17:06:00,
2014-02-18 12:11:00,24.2,19.8,30.01,West,279,3.5,3.5,83,0.00,CLR,,0.00,WeatherDisplay:10.37,2014-02-18 17:11:00,
2014-02-18 12:16:00,24.2,19.5,30.00,South,178,2.3,2.3,82,0.00,CLR,,0.00,WeatherDisplay:10.37,2014-02-18 17:16:00,
2014-02-18 12:21:00,24.3,19.6,30.00,SSW,213,1.2,1.2,82,0.00,CLR,,0.00,WeatherDisplay:10.37,2014-02-18 17:21:00,
2014-02-18 12:26:00,24.4,19.4,30.00,WSW,242,3.5,3.5,81,0.00,CLR,,0.00,WeatherDisplay:10.37,2014-02-18 17:26:00,
2014-02-18 12:31:00,24.4,19.4,30.00,South,184,4.6,4.6,81,0.00,CLR,,0.00,WeatherDisplay:10.37,2014-02-18 17:31:00,
2014-02-18 12:36:00,24.7,20.0,30.00,South,190,1.2,1.2,82,0.00,CLR,,0.00,WeatherDisplay:10.37,2014-02-18 17:36:00,
2014-02-18 12:41:00,25.0,20.3,29.99,SE,128,0.0,0.2,82,0.00,CLR,,0.00,WeatherDisplay:10.37,2014-02-18 17:41:00,
2014-02-18 12:46:00,25.2,20.2,29.99,North,360,13.8,13.8,81,0.00,CLR,,0.00,WeatherDisplay:10.37,2014-02-18 17:46:00,
2014-02-18 12:51:00,25.2,19.9,29.99,North,360,3.5,3.5,80,0.00,CLR,,0.00,WeatherDisplay:10.37,2014-02-18 17:51:00,
2014-02-18 12:56:00,25.4,20.4,29.99,East,86,3.5,3.5,81,0.00,CLR,,0.00,WeatherDisplay:10.37,2014-02-18 17:56:00,
2014-02-18 13:01:00,25.8,20.5,29.99,SE,145,1.2,1.2,80,0.00,CLR,,0.00,WeatherDisplay:10.37,2014-02-18 18:01:00,
2014-02-18 13:06:00,26.2,20.9,30.00,South,187,2.3,2.3,80,0.00,CLR,,0.00,WeatherDisplay:10.37,2014-02-18 18:06:00,
2014-02-18 13:11:00,26.4,21.1,29.99,ESE,118,3.5,3.5,80,0.00,CLR,,0.00,WeatherDisplay:10.37,2014-02-18 18:11:00,
2014-02-18 13:16:00,26.2,20.9,29.99,South,189,11.5,11.5,80,0.00,CLR,,0.00,WeatherDisplay:10.37,2014-02-18 18:16:00,
2014-02-18 13:21:00,26.4,21.1,29.99,WSW,237,3.5,3.5,80,0.00,CLR,,0.00,WeatherDisplay:10.37,2014-02-18 18:21:00,
2014-02-18 13:26:00,26.6,21.3,29.99,ESE,106,3.5,3.5,80,0.00,CLR,,0.00,WeatherDisplay:10.37,2014-02-18 18:26:00,
2014-02-18 13:31:00,26.9,21.8,29.99,SE,138,2.3,2.3,81,0.00,CLR,,0.00,WeatherDisplay:10.37,2014-02-18 18:31:00,
2014-02-18 13:36:00,26.9,21.6,29.99,South,172,3.5,3.5,80,0.00,CLR,,0.00,WeatherDisplay:10.37,2014-02-18 18:36:00,
2014-02-18 13:41:00,26.7,21.4,30.00,East,79,5.8,5.8,80,0.00,CLR,,0.00,WeatherDisplay:10.37,2014-02-18 18:41:00,
2014-02-18 13:46:00,26.6,21.6,30.00,WSW,242,4.6,4.6,81,0.00,CLR,,0.00,WeatherDisplay:10.37,2014-02-18 18:46:00,
2014-02-18 13:51:00,26.6,21.6,29.99,SE,145,3.5,3.5,81,0.00,CLR,,0.00,WeatherDisplay:10.37,2014-02-18 18:51:00,
2014-02-18 13:56:00,26.9,22.1,29.99,SE,140,1.2,1.2,82,0.00,CLR,,0.00,WeatherDisplay:10.37,2014-02-18 18:56:00,
2014-02-18 14:01:00,27.1,22.3,29.99,ESE,110,2.3,2.3,82,0.00,CLR,,0.00,WeatherDisplay:10.37,2014-02-18 19:01:00,
2014-02-18 14:06:00,27.1,22.3,30.00,East,91,3.5,3.5,82,0.00,CLR,,0.00,WeatherDisplay:10.37,2014-02-18 19:06:00,
2014-02-18 14:12:00,26.9,22.1,30.00,SSE,158,2.3,2.3,82,0.00,CLR,,0.00,WeatherDisplay:10.37,2014-02-18 19:12:00,
2014-02-18 14:18:00,27.1,22.6,30.00,SSE,168,0.0,0.0,83,0.00,CLR,,0.00,WeatherDisplay:10.37,2014-02-18 19:18:00,
2014-02-18 14:23:00,27.2,22.7,30.00,SSE,160,0.0,0.0,83,0.00,CLR,,0.00,WeatherDisplay:10.37,2014-02-18 19:23:00,
2014-02-18 14:28:00,27.4,23.2,30.00,SSE,155,3.5,3.5,84,0.00,CLR,,0.00,WeatherDisplay:10.37,2014-02-18 19:28:00,
2014-02-18 14:33:00,27.5,23.3,30.00,SSE,154,3.5,3.5,84,0.00,CLR,,0.00,WeatherDisplay:10.37,2014-02-18 19:33:00,
2014-02-18 14:38:00,27.6,23.4,30.00,SSE,153,0.0,0.0,84,0.00,CLR,,0.00,WeatherDisplay:10.37,2014-02-18 19:38:00,
2014-02-18 14:43:00,27.4,22.9,30.00,SSE,155,2.3,2.3,83,0.00,CLR,,0.00,WeatherDisplay:10.37,2014-02-18 19:43:00,
2014-02-18 14:48:00,27.1,22.9,30.00,SSE,161,1.2,1.2,84,0.00,CLR,,0.00,WeatherDisplay:10.37,2014-02-18 19:48:00,
2014-02-18 14:53:00,27.1,22.9,30.00,SW,224,3.0,3.0,84,0.00,CLR,,0.00,WeatherDisplay:10.37,2014-02-18 19:53:00,
2014-02-18 14:58:00,27.0,22.8,30.01,WSW,249,3.5,3.5,84,0.00,CLR,,0.00,WeatherDisplay:10.37,2014-02-18 19:58:00,
2014-02-18 15:03:00,27.0,22.8,30.01,WSW,240,1.2,1.2,84,0.00,CLR,,0.00,WeatherDisplay:10.37,2014-02-18 20:03:00,
2014-02-18 15:08:00,27.0,22.8,30.01,WSW,253,1.2,1.2,84,0.00,CLR,,0.00,WeatherDisplay:10.37,2014-02-18 20:08:00,
2014-02-18 15:13:00,27.1,22.9,30.01,West,267,5.8,5.8,84,0.00,CLR,,0.00,WeatherDisplay:10.37,2014-02-18 20:13:00,
2014-02-18 15:18:00,26.7,22.2,30.01,West,267,3.5,3.5,83,0.00,CLR,,0.00,WeatherDisplay:10.37,2014-02-18 20:18:00,
2014-02-18 15:23:00,26.5,22.3,30.02,West,259,2.3,2.3,84,0.00,CLR,,0.00,WeatherDisplay:10.37,2014-02-18 20:23:00,
2014-02-18 15:28:00,26.4,22.2,30.02,West,270,2.3,2.3,84,0.00,CLR,,0.00,WeatherDisplay:10.37,2014-02-18 20:28:00,
2014-02-18 15:33:00,26.3,22.4,30.02,West,279,4.6,4.6,85,0.00,CLR,,0.00,WeatherDisplay:10.37,2014-02-18 20:33:00,
2014-02-18 15:38:00,26.3,22.4,30.02,WSW,241,3.5,3.5,85,0.00,CLR,,0.00,WeatherDisplay:10.37,2014-02-18 20:38:00,
2014-02-18 15:43:00,26.3,22.4,30.02,WSW,244,3.5,3.5,85,0.00,CLR,,0.00,WeatherDisplay:10.37,2014-02-18 20:43:00,
2014-02-18 15:48:00,26.1,21.9,30.02,West,269,10.4,10.4,84,0.00,CLR,,0.00,WeatherDisplay:10.37,2014-02-18 20:48:00,
2014-02-18 15:53:00,26.0,21.3,30.03,WNW,296,8.1,8.1,82,0.00,CLR,,0.00,WeatherDisplay:10.37,2014-02-18 20:53:00,
2014-02-18 15:58:00,25.9,21.2,30.02,WSW,256,3.5,3.5,82,0.00,CLR,,0.00,WeatherDisplay:10.37,2014-02-18 20:58:00,
2014-02-18 16:03:00,25.8,21.1,30.03,West,261,5.8,5.8,82,0.00,CLR,,0.00,WeatherDisplay:10.37,2014-02-18 21:03:00,
2014-02-18 16:08:00,25.6,20.9,30.03,West,271,8.1,8.1,82,0.00,CLR,,0.00,WeatherDisplay:10.37,2014-02-18 21:08:00,
2014-02-18 16:13:00,25.7,20.7,30.03,West,264,3.5,3.5,81,0.00,CLR,,0.00,WeatherDisplay:10.37,2014-02-18 21:13:00,
2014-02-18 16:18:00,25.6,20.6,30.03,WSW,247,4.6,4.6,81,0.00,CLR,,0.00,WeatherDisplay:10.37,2014-02-18 21:18:00,
2014-02-18 16:23:00,25.5,20.5,30.03,WNW,290,9.2,9.2,81,0.00,CLR,,0.00,WeatherDisplay:10.37,2014-02-18 21:23:00,
2014-02-18 16:28:00,25.4,20.4,30.03,NW,311,2.3,2.3,81,0.00,CLR,,0.00,WeatherDisplay:10.37,2014-02-18 21:28:00,
2014-02-18 16:33:00,25.4,20.4,30.03,WNW,283,3.5,3.5,81,0.00,CLR,,0.00,WeatherDisplay:10.37,2014-02-18 21:33:00,
2014-02-18 16:38:00,25.3,20.6,30.03,NNW,339,1.2,1.2,82,0.00,CLR,,0.00,WeatherDisplay:10.37,2014-02-18 21:38:00,
2014-02-18 16:43:00,25.2,20.8,30.03,WSW,253,3.5,3.5,83,0.00,CLR,,0.00,WeatherDisplay:10.37,2014-02-18 21:43:00,
2014-02-18 16:48:00,25.2,20.8,30.04,WSW,255,1.2,1.2,83,0.00,CLR,,0.00,WeatherDisplay:10.37,2014-02-18 21:48:00,
2014-02-18 16:53:00,25.2,21.0,30.04,West,263,2.3,2.3,84,0.00,CLR,,0.00,WeatherDisplay:10.37,2014-02-18 21:53:00,
2014-02-18 16:58:00,25.2,21.0,30.04,West,263,1.2,0.0,84,0.00,CLR,,0.00,WeatherDisplay:10.37,2014-02-18 21:58:00,
2014-02-18 17:03:00,25.2,21.3,30.04,West,263,2.3,2.3,85,0.00,CLR,,0.00,WeatherDisplay:10.37,2014-02-18 22:03:00,
2014-02-18 17:08:00,25.1,21.2,30.05,West,267,4.6,4.6,85,0.00,CLR,,0.00,WeatherDisplay:10.37,2014-02-18 22:08:00,
2014-02-18 17:13:00,24.7,21.1,30.05,WNW,283,5.8,5.8,86,0.00,CLR,,0.00,WeatherDisplay:10.37,2014-02-18 22:13:00,
2014-02-18 17:18:00,24.1,20.8,30.05,WNW,296,6.9,6.9,87,0.00,CLR,,0.00,WeatherDisplay:10.37,2014-02-18 22:18:00,
2014-02-18 17:23:00,23.8,20.8,30.05,NNW,331,4.6,4.6,88,0.00,CLR,,0.00,WeatherDisplay:10.37,2014-02-18 22:23:00,
2014-02-18 17:28:00,23.6,20.6,30.05,NNW,330,3.5,3.5,88,0.00,CLR,,0.00,WeatherDisplay:10.37,2014-02-18 22:28:00,
2014-02-18 17:33:00,23.4,20.6,30.05,WNW,283,1.2,1.2,89,0.00,CLR,,0.00,WeatherDisplay:10.37,2014-02-18 22:33:00,
2014-02-18 17:38:00,23.2,20.4,30.05,NW,311,3.5,3.5,89,0.00,CLR,,0.00,WeatherDisplay:10.37,2014-02-18 22:38:00,
2014-02-18 17:43:00,23.1,20.3,30.05,West,279,2.3,2.3,89,0.00,CLR,,0.00,WeatherDisplay:10.37,2014-02-18 22:43:00,
2014-02-18 17:48:00,23.1,20.3,30.06,WNW,285,2.3,2.3,89,0.00,CLR,,0.00,WeatherDisplay:10.37,2014-02-18 22:48:00,
2014-02-18 17:53:00,23.0,20.2,30.06,West,275,2.3,2.3,89,0.00,CLR,,0.00,WeatherDisplay:10.37,2014-02-18 22:53:00,
2014-02-18 17:58:00,23.0,20.2,30.06,WNW,286,1.2,1.2,89,0.00,CLR,,0.00,WeatherDisplay:10.37,2014-02-18 22:58:00,
2014-02-18 18:03:00,22.9,20.1,30.06,West,263,1.2,1.2,89,0.00,CLR,,0.00,WeatherDisplay:10.37,2014-02-18 23:03:00,
2014-02-18 18:08:00,22.9,20.1,30.07,WNW,288,2.3,2.3,89,0.00,CLR,,0.00,WeatherDisplay:10.37,2014-02-18 23:08:00,
2014-02-18 18:13:00,22.9,20.1,30.07,NNW,341,3.5,3.5,89,0.00,CLR,,0.00,WeatherDisplay:10.37,2014-02-18 23:13:00,
2014-02-18 18:18:00,22.9,20.1,30.07,NW,325,2.3,2.3,89,0.00,CLR,,0.00,WeatherDisplay:10.37,2014-02-18 23:18:00,
2014-02-18 18:23:00,22.8,20.0,30.07,NW,324,1.2,1.2,89,0.00,CLR,,0.00,WeatherDisplay:10.37,2014-02-18 23:23:00,
2014-02-18 18:28:00,22.9,20.1,30.08,WNW,290,2.3,2.3,89,0.00,CLR,,0.00,WeatherDisplay:10.37,2014-02-18 23:28:00,
2014-02-18 18:33:00,22.8,20.0,30.08,West,267,1.2,1.2,89,0.00,CLR,,0.00,WeatherDisplay:10.37,2014-02-18 23:33:00,
2014-02-18 18:38:00,22.8,19.8,30.08,West,267,2.3,2.3,88,0.00,CLR,,0.00,WeatherDisplay:10.37,2014-02-18 23:38:00,
2014-02-18 18:43:00,22.7,19.7,30.09,WNW,300,4.6,4.6,88,0.00,CLR,,0.00,WeatherDisplay:10.37,2014-02-18 23:43:00,
2014-02-18 18:48:00,22.7,19.7,30.08,WNW,290,0.0,0.1,88,0.00,CLR,,0.00,WeatherDisplay:10.37,2014-02-18 23:48:00,
2014-02-18 18:53:00,22.7,19.7,30.09,West,259,3.5,3.5,88,0.00,CLR,,0.00,WeatherDisplay:10.37,2014-02-18 23:53:00,
2014-02-18 18:58:00,22.7,19.4,30.09,West,260,4.6,4.6,87,0.00,CLR,,0.00,WeatherDisplay:10.37,2014-02-18 23:58:00,
2014-02-18 19:03:00,22.7,19.4,30.08,West,272,2.3,2.3,87,0.00,CLR,,0.00,WeatherDisplay:10.37,2014-02-19 00:03:00,
2014-02-18 19:08:00,22.6,19.3,30.09,West,272,2.3,2.3,87,0.00,CLR,,0.00,WeatherDisplay:10.37,2014-02-19 00:08:00,
2014-02-18 19:13:00,22.5,19.2,30.09,WNW,290,1.2,1.2,87,0.00,CLR,,0.00,WeatherDisplay:10.37,2014-02-19 00:13:00,
2014-02-18 19:18:00,22.5,19.2,30.09,WNW,296,4.6,4.6,87,0.00,CLR,,0.00,WeatherDisplay:10.37,2014-02-19 00:18:00,
2014-02-18 19:23:00,22.4,19.1,30.10,NW,311,3.5,3.5,87,0.00,CLR,,0.00,WeatherDisplay:10.37,2014-02-19 00:23:00,
2014-02-18 19:28:00,22.4,19.1,30.10,WNW,296,2.3,2.3,87,0.00,CLR,,0.00,WeatherDisplay:10.37,2014-02-19 00:28:00,
2014-02-18 19:33:00,22.2,18.9,30.10,West,277,2.3,2.3,87,0.00,CLR,,0.00,WeatherDisplay:10.37,2014-02-19 00:33:00,
2014-02-18 19:38:00,22.2,18.9,30.10,NW,304,3.5,3.5,87,0.00,CLR,,0.00,WeatherDisplay:10.37,2014-02-19 00:38:00,
2014-02-18 19:43:00,22.0,18.7,30.10,West,272,5.8,5.8,87,0.00,CLR,,0.00,WeatherDisplay:10.37,2014-02-19 00:43:00,
2014-02-18 19:48:00,22.0,18.7,30.10,West,281,5.8,6.8,87,0.00,CLR,,0.00,WeatherDisplay:10.37,2014-02-19 00:48:00,
2014-02-18 19:53:00,22.0,18.7,30.10,North,355,2.3,0.0,87,0.00,CLR,,0.00,WeatherDisplay:10.37,2014-02-19 00:53:00,
2014-02-18 19:58:00,21.9,18.6,30.10,West,278,6.9,6.9,87,0.00,CLR,,0.00,WeatherDisplay:10.37,2014-02-19 00:58:00,
2014-02-18 20:03:00,21.9,18.6,30.10,WNW,288,2.3,2.3,87,0.00,CLR,,0.00,WeatherDisplay:10.37,2014-02-19 01:03:00,
2014-02-18 20:08:00,21.9,18.6,30.09,WNW,300,0.0,0.1,87,0.00,CLR,,0.00,WeatherDisplay:10.37,2014-02-19 01:08:00,
2014-02-18 20:13:00,21.8,18.5,30.10,WNW,298,2.3,2.3,87,0.00,CLR,,0.00,WeatherDisplay:10.37,2014-02-19 01:13:00,
2014-02-18 20:18:00,21.7,18.4,30.10,WNW,298,1.2,1.2,87,0.00,CLR,,0.00,WeatherDisplay:10.37,2014-02-19 01:18:00,
2014-02-18 20:23:00,21.5,18.2,30.11,WNW,298,0.0,0.0,87,0.00,CLR,,0.00,WeatherDisplay:10.37,2014-02-19 01:23:00,
2014-02-18 20:28:00,21.4,18.1,30.11,WNW,298,0.0,0.0,87,0.00,CLR,,0.00,WeatherDisplay:10.37,2014-02-19 01:28:00,
2014-02-18 20:33:00,21.3,18.0,30.11,WSW,240,2.0,2.0,87,0.00,CLR,,0.00,WeatherDisplay:10.37,2014-02-19 01:33:00,
2014-02-18 20:38:00,21.3,18.0,30.11,WSW,245,1.2,1.2,87,0.00,CLR,,0.00,WeatherDisplay:10.37,2014-02-19 01:38:00,
2014-02-18 20:43:00,21.2,17.9,30.11,WSW,245,0.0,0.1,87,0.00,CLR,,0.00,WeatherDisplay:10.37,2014-02-19 01:43:00,
2014-02-18 20:48:00,21.3,18.0,30.12,West,259,9.2,9.2,87,0.00,CLR,,0.00,WeatherDisplay:10.37,2014-02-19 01:48:00,
2014-02-18 20:53:00,21.4,17.9,30.12,WSW,252,11.5,11.5,86,0.00,CLR,,0.00,WeatherDisplay:10.37,2014-02-19 01:53:00,
2014-02-18 20:58:00,21.5,18.0,30.12,SW,229,5.8,5.8,86,0.00,CLR,,0.00,WeatherDisplay:10.37,2014-02-19 01:58:00,
2014-02-18 21:04:00,21.4,17.9,30.11,West,263,3.5,3.5,86,0.00,CLR,,0.00,WeatherDisplay:10.37,2014-02-19 02:04:00,
2014-02-18 21:09:00,21.4,17.9,30.11,West,276,4.6,4.6,86,0.00,CLR,,0.00,WeatherDisplay:10.37,2014-02-19 02:09:00,
2014-02-18 21:14:00,21.3,17.8,30.10,West,261,1.2,0.0,86,0.00,CLR,,0.00,WeatherDisplay:10.37,2014-02-19 02:14:00,
2014-02-18 21:19:00,21.4,17.9,30.09,West,261,0.0,0.0,86,0.00,CLR,,0.00,WeatherDisplay:10.37,2014-02-19 02:19:00,
2014-02-18 21:24:00,21.3,17.8,30.09,West,261,0.0,0.0,86,0.00,CLR,,0.00,WeatherDisplay:10.37,2014-02-19 02:24:00,
2014-02-18 21:29:00,21.1,17.6,30.10,West,259,9.2,9.2,86,0.00,CLR,,0.00,WeatherDisplay:10.37,2014-02-19 02:29:00,
2014-02-18 21:34:00,21.1,17.6,30.10,WSW,237,0.0,0.2,86,0.00,CLR,,0.00,WeatherDisplay:10.37,2014-02-19 02:34:00,
2014-02-18 21:39:00,21.0,17.5,30.09,West,265,3.5,3.5,86,0.00,CLR,,0.00,WeatherDisplay:10.37,2014-02-19 02:39:00,
2014-02-18 21:44:00,20.9,17.1,30.10,West,265,2.3,2.3,85,0.00,CLR,,0.00,WeatherDisplay:10.37,2014-02-19 02:44:00,
2014-02-18 21:49:00,20.8,17.0,30.10,West,261,2.3,2.3,85,0.00,CLR,,0.00,WeatherDisplay:10.37,2014-02-19 02:49:00,
2014-02-18 21:54:00,20.7,16.9,30.09,NW,315,2.3,2.3,85,0.00,CLR,,0.00,WeatherDisplay:10.37,2014-02-19 02:54:00,
2014-02-18 21:59:00,20.4,16.3,30.09,West,259,1.2,1.2,84,0.00,CLR,,0.00,WeatherDisplay:10.37,2014-02-19 02:59:00,
2014-02-18 22:04:00,20.4,16.3,30.09,West,259,2.3,2.3,84,0.00,CLR,,0.00,WeatherDisplay:10.37,2014-02-19 03:04:00,